aviador You're here:

KGZH Decoded Metar

EVERGREEN in AL, USA
Report Time2017-06-24 16:53:00
UTC Time2017-06-24 17:14:47
Flight Rules vfr VFR
WindVRB at 06 kt
Visibility9999 m
Phenomena:N/A
Clouds:Few 026 Hf
Scattered 070 Hf
Broken 080 Hf
Expected CloudBase > 2,800 ft AGL from Temp-Dew spread
Ceiling8,000 ft
Temp30°C (ISA +16)
Dew Point23°C (66% RH)
Heat Index34.1°C
QNH1018 hPa
Density Alt2,234 ft
Elevation256 ft
Report Wrong Elevation
Raw Report
METAR KGZH 241653Z AUTO VRB06KT 10SM FEW026 SCT070 BKN080 30/23 A3005
RMK AO2 SLP170 T03000228=

Extra information for KGZH:More info

Metar Taf Metar & Taf Last 4 Metars F.Rules Stats Wind Profile Meteogram Temp Stats Airport Information Weather charts Add Link Nearby VenuesMetar ALERT Operation Metar Decoded Social comments

AIRNAV info for KGZH